createdAt,value
2019-03-23T00:02:13.026Z,6.33
2019-03-23T00:04:40.558Z,7.27
2019-03-23T00:07:08.069Z,7.93
2019-03-23T00:09:35.590Z,9.50
2019-03-23T00:12:03.132Z,9.07
2019-03-23T00:14:30.470Z,8.97
2019-03-23T00:16:57.930Z,6.63
2019-03-23T00:19:25.300Z,7.20
2019-03-23T00:21:52.640Z,6.87
2019-03-23T00:24:19.944Z,7.77
2019-03-23T00:26:47.272Z,8.10
2019-03-23T00:29:15.058Z,7.27
2019-03-23T00:31:42.376Z,7.40
2019-03-23T00:34:09.804Z,7.60
2019-03-23T00:36:41.311Z,8.17
2019-03-23T00:39:06.731Z,9.50
2019-03-23T00:41:34.252Z,7.53
2019-03-23T00:44:01.655Z,8.20
2019-03-23T00:46:28.969Z,6.80
2019-03-23T00:48:56.539Z,6.67
2019-03-23T00:51:24.271Z,7.90
2019-03-23T00:53:51.824Z,7.20
2019-03-23T00:56:19.233Z,7.00
2019-03-23T00:58:46.552Z,9.83
2019-03-23T01:01:14.080Z,8.33
2019-03-23T01:03:41.508Z,9.27
2019-03-23T01:06:09.055Z,8.50
2019-03-23T01:08:36.357Z,10.87
2019-03-23T01:11:03.867Z,10.07
2019-03-23T01:13:31.275Z,9.00
2019-03-23T01:15:58.687Z,11.13
2019-03-23T01:18:25.997Z,8.07
2019-03-23T01:20:53.486Z,10.50
2019-03-23T01:23:20.821Z,9.20
2019-03-23T01:25:48.124Z,9.03
2019-03-23T01:28:16.066Z,8.00
2019-03-23T01:30:43.384Z,9.93
2019-03-23T01:33:10.675Z,10.13
2019-03-23T01:35:38.004Z,13.30
2019-03-23T01:38:05.374Z,9.33
2019-03-23T01:40:32.674Z,9.20
2019-03-23T01:43:00.016Z,10.77
2019-03-23T01:45:28.476Z,12.17
2019-03-23T01:47:55.920Z,10.60
2019-03-23T01:50:23.212Z,9.00
2019-03-23T01:52:50.523Z,9.27
2019-03-23T01:55:17.901Z,10.93
2019-03-23T01:57:45.312Z,8.97
2019-03-23T02:00:13.974Z,11.30
2019-03-23T02:02:41.360Z,9.13
2019-03-23T02:05:08.969Z,8.63
2019-03-23T02:07:36.377Z,9.37
2019-03-23T02:10:04.141Z,8.17
2019-03-23T02:12:31.426Z,8.80
2019-03-23T02:14:58.768Z,9.87
2019-03-23T02:17:26.052Z,10.40
2019-03-23T02:19:53.688Z,9.73
2019-03-23T02:22:21.134Z,8.90
2019-03-23T02:24:48.516Z,10.80
2019-03-23T02:27:16.047Z,13.67
2019-03-23T02:29:43.407Z,12.00
2019-03-23T02:32:10.821Z,10.37
2019-03-23T02:34:38.136Z,9.07
2019-03-23T02:37:05.837Z,11.13
2019-03-23T02:39:33.207Z,10.17
2019-03-23T02:42:00.564Z,10.00
2019-03-23T02:44:27.885Z,12.37
2019-03-23T02:46:55.448Z,15.07
2019-03-23T02:49:22.845Z,11.70
2019-03-23T02:51:50.150Z,9.87
2019-03-23T02:54:17.487Z,10.43
2019-03-23T02:56:44.900Z,13.37
2019-03-23T02:59:12.231Z,11.07
2019-03-23T03:01:39.510Z,10.47
2019-03-23T03:04:06.840Z,11.03
2019-03-23T03:06:34.535Z,11.33
2019-03-23T03:09:03.963Z,8.70
2019-03-23T03:11:31.261Z,9.27
2019-03-23T03:13:58.594Z,8.40
2019-03-23T03:16:25.913Z,8.00
2019-03-23T03:18:53.240Z,10.90
2019-03-23T03:21:20.550Z,10.57
2019-03-23T03:23:47.955Z,9.80
2019-03-23T03:26:15.385Z,11.47
2019-03-23T03:28:42.690Z,8.93
2019-03-23T03:31:10.087Z,9.53
2019-03-23T03:33:37.418Z,9.97
2019-03-23T03:36:04.803Z,13.47
2019-03-23T03:38:32.229Z,11.50
2019-03-23T03:40:59.529Z,11.70
2019-03-23T03:43:26.824Z,11.10
2019-03-23T03:45:54.147Z,9.17
2019-03-23T03:48:21.702Z,11.20
2019-03-23T03:50:49.125Z,9.53
2019-03-23T03:53:16.407Z,9.93
2019-03-23T03:55:44.028Z,10.53
2019-03-23T03:58:11.305Z,8.43
2019-03-23T04:00:38.832Z,9.10
2019-03-23T04:03:06.125Z,8.87
2019-03-23T04:05:33.453Z,9.63
2019-03-23T04:08:10.967Z,9.73
2019-03-23T04:10:30.249Z,8.43
2019-03-23T04:12:57.686Z,9.90
2019-03-23T04:15:25.049Z,9.20
2019-03-23T04:17:52.452Z,9.97
2019-03-23T04:20:19.758Z,9.53
2019-03-23T04:22:47.166Z,9.27
2019-03-23T04:25:14.742Z,10.07
2019-03-23T04:27:42.142Z,10.53
2019-03-23T04:30:09.865Z,13.23
2019-03-23T04:32:37.562Z,11.70
2019-03-23T04:35:05.966Z,9.80
2019-03-23T04:37:33.501Z,11.30
2019-03-23T04:40:00.930Z,10.37
2019-03-23T04:42:28.475Z,10.60
2019-03-23T04:44:55.792Z,12.70
2019-03-23T04:47:23.101Z,10.47
2019-03-23T04:49:50.452Z,11.60
2019-03-23T04:52:18.103Z,10.67
2019-03-23T04:54:45.403Z,11.27
2019-03-23T04:57:13.180Z,11.47
2019-03-23T04:59:40.581Z,10.83
2019-03-23T05:02:08.112Z,12.83
2019-03-23T05:04:35.521Z,12.80
2019-03-23T05:07:02.917Z,10.40
2019-03-23T05:09:30.353Z,11.43
2019-03-23T05:11:58.167Z,10.23
2019-03-23T05:14:25.493Z,12.87
2019-03-23T05:16:52.783Z,12.47
2019-03-23T05:19:20.112Z,11.30
2019-03-23T05:21:47.692Z,13.87
2019-03-23T05:24:15.095Z,11.37
2019-03-23T05:26:42.507Z,13.20
2019-03-23T05:29:09.949Z,11.10
2019-03-23T05:31:37.304Z,12.73
2019-03-23T05:34:04.624Z,11.67
2019-03-23T05:36:32.058Z,12.93
2019-03-23T05:38:59.374Z,12.03
2019-03-23T05:41:26.712Z,12.07
2019-03-23T05:43:54.021Z,10.43
2019-03-23T05:46:21.421Z,9.00
2019-03-23T05:48:48.829Z,9.83
2019-03-23T05:51:16.164Z,9.87
2019-03-23T05:53:43.693Z,8.60
2019-03-23T05:56:11.331Z,10.23
2019-03-23T05:58:38.880Z,8.77
2019-03-23T06:01:06.231Z,9.47
2019-03-23T06:03:34.011Z,8.80
2019-03-23T06:06:01.872Z,9.00
2019-03-23T06:08:29.644Z,9.40
2019-03-23T06:10:58.320Z,8.50
2019-03-23T06:13:25.856Z,9.40
2019-03-23T06:15:54.962Z,9.03
2019-03-23T06:18:22.280Z,10.43
2019-03-23T06:20:49.903Z,13.03
2019-03-23T06:23:17.399Z,9.80
2019-03-23T06:25:44.769Z,10.43
2019-03-23T06:28:12.839Z,9.93
2019-03-23T06:30:45.649Z,9.03
2019-03-23T06:33:15.833Z,9.98
2019-03-23T06:35:44.485Z,11.50
2019-03-23T06:38:11.961Z,14.50
2019-03-23T06:40:39.356Z,10.50
2019-03-23T06:43:06.948Z,10.50
2019-03-23T06:45:35.243Z,14.07
2019-03-23T06:48:03.302Z,11.80
2019-03-23T06:50:30.935Z,11.38
2019-03-23T06:52:58.358Z,13.05
2019-03-23T06:55:25.804Z,11.68
2019-03-23T06:57:53.101Z,13.75
2019-03-23T07:00:20.545Z,14.53
2019-03-23T07:02:47.936Z,12.78
2019-03-23T07:05:15.588Z,18.17
2019-03-23T07:07:43.032Z,13.08
2019-03-23T07:10:10.882Z,12.73
2019-03-23T07:12:38.617Z,13.72
2019-03-23T07:15:07.012Z,13.45
2019-03-23T07:17:34.456Z,13.15
2019-03-23T07:20:02.067Z,13.88
2019-03-23T07:22:29.409Z,14.18
2019-03-23T07:24:57.008Z,13.45
2019-03-23T07:27:24.340Z,14.07
2019-03-23T07:29:51.886Z,13.20
2019-03-23T07:32:19.193Z,11.90
2019-03-23T07:34:46.497Z,14.65
2019-03-23T07:37:13.835Z,14.45
2019-03-23T07:39:41.142Z,13.40
2019-03-23T07:42:08.708Z,13.05
2019-03-23T07:44:36.072Z,15.95
2019-03-23T07:47:03.900Z,23.38
2019-03-23T07:49:31.228Z,19.90
2019-03-23T07:51:58.670Z,20.35
2019-03-23T07:54:25.978Z,18.70
2019-03-23T07:56:53.323Z,19.10
2019-03-23T07:59:20.683Z,15.30
2019-03-23T08:01:48.217Z,19.02
2019-03-23T08:04:15.633Z,17.35
2019-03-23T08:06:42.971Z,19.98
2019-03-23T08:09:19.993Z,21.57
2019-03-23T08:11:39.588Z,17.95
2019-03-23T08:14:07.124Z,18.87
2019-03-23T08:16:34.543Z,20.32
2019-03-23T08:19:02.197Z,17.92
2019-03-23T08:21:29.953Z,20.80
2019-03-23T08:23:57.749Z,18.30
2019-03-23T08:26:25.076Z,18.32
2019-03-23T08:28:52.467Z,17.65
2019-03-23T08:31:19.803Z,19.02
2019-03-23T08:33:47.331Z,17.55
2019-03-23T08:36:14.860Z,18.50
2019-03-23T08:38:42.170Z,19.35
2019-03-23T08:41:09.578Z,26.52
2019-03-23T08:43:36.884Z,20.77
2019-03-23T08:46:04.188Z,19.15
2019-03-23T08:48:31.765Z,18.87
2019-03-23T08:50:59.221Z,19.90
2019-03-23T08:53:26.565Z,22.55
2019-03-23T08:55:54.069Z,20.70
2019-03-23T08:58:29.396Z,22.45
2019-03-23T09:00:57.878Z,18.85
2019-03-23T09:03:25.391Z,19.60
2019-03-23T09:05:52.692Z,19.45
2019-03-23T09:08:20.385Z,21.95
2019-03-23T09:10:47.698Z,24.25
2019-03-23T09:13:15.084Z,20.92
2019-03-23T09:15:42.488Z,20.30
2019-03-23T09:18:09.891Z,22.82
2019-03-23T09:20:37.646Z,21.17
2019-03-23T09:23:05.062Z,21.02
2019-03-23T09:25:33.279Z,23.92
2019-03-23T09:28:00.588Z,22.25
2019-03-23T09:30:27.899Z,23.75
2019-03-23T09:32:56.961Z,23.22
2019-03-23T09:35:24.375Z,22.45
2019-03-23T09:37:51.678Z,23.98
2019-03-23T09:40:19.080Z,25.20
2019-03-23T09:42:46.363Z,26.20
2019-03-23T09:45:14.383Z,24.02
2019-03-23T09:47:41.845Z,25.48
2019-03-23T09:50:09.700Z,24.67
2019-03-23T09:52:37.265Z,24.70
2019-03-23T09:55:05.505Z,25.88
2019-03-23T09:57:33.271Z,25.50
2019-03-23T10:00:00.902Z,28.70
2019-03-23T10:02:28.209Z,24.65
2019-03-23T10:04:55.544Z,24.40
2019-03-23T10:07:23.131Z,26.23
2019-03-23T10:09:50.713Z,26.35
2019-03-23T10:12:19.965Z,26.93
2019-03-23T10:14:47.420Z,27.65
2019-03-23T10:17:14.872Z,29.35
2019-03-23T10:19:42.620Z,26.45
2019-03-23T10:22:09.969Z,26.35
2019-03-23T10:24:37.295Z,27.48
2019-03-23T10:27:04.792Z,27.98
2019-03-23T10:29:32.205Z,30.08
2019-03-23T10:31:59.768Z,28.25
2019-03-23T10:34:27.439Z,28.60
2019-03-23T10:36:54.772Z,28.65
2019-03-23T10:39:22.987Z,30.88
2019-03-23T10:41:50.843Z,28.87
2019-03-23T10:44:18.961Z,28.52
2019-03-23T10:46:46.629Z,29.60
2019-03-23T10:49:14.974Z,28.55
2019-03-23T10:51:42.861Z,31.27
2019-03-23T10:54:10.303Z,27.05
2019-03-23T10:56:38.077Z,25.90
2019-03-23T10:59:06.744Z,27.90
2019-03-23T11:01:34.514Z,28.07
2019-03-23T11:04:02.859Z,27.85
2019-03-23T11:06:32.913Z,28.12
2019-03-23T11:09:00.585Z,29.00
2019-03-23T11:11:28.679Z,29.00
2019-03-23T11:13:59.584Z,28.85
2019-03-23T11:16:27.576Z,28.57
2019-03-23T11:18:55.554Z,27.55
2019-03-23T11:21:23.796Z,28.55
2019-03-23T11:23:52.105Z,26.93
2019-03-23T11:26:20.139Z,28.87
2019-03-23T11:28:48.075Z,30.15
2019-03-23T11:31:16.228Z,26.87
2019-03-23T11:33:43.999Z,28.70
2019-03-23T11:36:11.858Z,30.37
2019-03-23T11:38:41.393Z,27.32
2019-03-23T11:41:09.634Z,30.23
2019-03-23T11:43:37.356Z,27.85
2019-03-23T11:46:05.627Z,27.02
2019-03-23T11:48:33.145Z,27.35
2019-03-23T11:51:00.543Z,24.92
2019-03-23T11:53:27.846Z,26.75
2019-03-23T11:55:55.574Z,27.37
2019-03-23T11:58:24.081Z,27.32
2019-03-23T12:00:52.584Z,26.37
2019-03-23T12:03:20.234Z,27.48
2019-03-23T12:05:47.846Z,24.47
2019-03-23T12:08:15.160Z,26.17
2019-03-23T12:10:42.908Z,26.93
2019-03-23T12:13:10.974Z,27.52
2019-03-23T12:15:38.609Z,29.18
2019-03-23T12:18:06.020Z,26.52
2019-03-23T12:20:33.410Z,27.15
2019-03-23T12:23:00.762Z,22.40
2019-03-23T12:25:28.107Z,21.62
2019-03-23T12:27:55.548Z,27.30
2019-03-23T12:30:23.249Z,25.10
2019-03-23T12:32:50.536Z,26.27
2019-03-23T12:35:17.922Z,26.10
2019-03-23T12:37:45.331Z,24.98
2019-03-23T12:40:13.006Z,23.73
2019-03-23T12:42:40.553Z,24.72
2019-03-23T12:45:08.293Z,23.38
2019-03-23T12:47:36.020Z,25.32
2019-03-23T12:50:04.084Z,25.00
2019-03-23T12:52:31.666Z,25.10
2019-03-23T12:54:59.312Z,26.23
2019-03-23T12:57:26.616Z,27.87
2019-03-23T12:59:53.892Z,25.50
2019-03-23T13:02:21.353Z,25.15
2019-03-23T13:04:48.684Z,26.68
2019-03-23T13:07:16.192Z,27.13
2019-03-23T13:09:43.724Z,28.25
2019-03-23T13:12:11.119Z,25.23
2019-03-23T13:14:38.427Z,24.57
2019-03-23T13:17:05.960Z,25.05
2019-03-23T13:19:33.246Z,26.12
2019-03-23T13:22:00.911Z,25.88
2019-03-23T13:24:28.237Z,26.87
2019-03-23T13:26:55.532Z,28.27
2019-03-23T13:29:22.815Z,27.70
2019-03-23T13:31:50.129Z,26.82
2019-03-23T13:34:18.287Z,26.85
2019-03-23T13:36:45.872Z,27.10
2019-03-23T13:39:13.403Z,25.50
2019-03-23T13:41:47.177Z,25.82
2019-03-23T13:44:14.669Z,25.32
2019-03-23T13:46:41.962Z,24.92
2019-03-23T13:49:09.271Z,25.65
2019-03-23T13:51:36.544Z,24.25
2019-03-23T13:54:04.071Z,26.37
2019-03-23T13:56:31.397Z,25.77
2019-03-23T13:58:58.728Z,26.80
2019-03-23T14:01:26.139Z,25.90
2019-03-23T14:03:53.489Z,25.37
2019-03-23T14:06:20.788Z,26.65
2019-03-23T14:08:48.137Z,26.42
2019-03-23T14:11:15.516Z,26.55
2019-03-23T14:13:42.856Z,25.57
2019-03-23T14:16:10.213Z,27.22
2019-03-23T14:18:37.653Z,27.27
2019-03-23T14:21:05.217Z,26.77
2019-03-23T14:23:32.572Z,26.48
2019-03-23T14:26:00.193Z,27.73
2019-03-23T14:28:27.552Z,26.15
2019-03-23T14:30:55.113Z,26.50
2019-03-23T14:33:22.792Z,27.60
2019-03-23T14:35:50.687Z,27.52
2019-03-23T14:38:18.288Z,27.15
2019-03-23T14:40:45.819Z,25.92
2019-03-23T14:43:13.108Z,25.55
2019-03-23T14:45:40.736Z,26.00
2019-03-23T14:48:08.023Z,25.80
2019-03-23T14:50:35.380Z,25.90
2019-03-23T14:53:03.190Z,25.00
2019-03-23T14:55:30.615Z,24.18
2019-03-23T14:57:58.249Z,26.02
2019-03-23T15:00:48.056Z,26.40
2019-03-23T15:03:31.804Z,26.27
2019-03-23T15:05:59.910Z,26.65
2019-03-23T15:08:28.161Z,29.00
2019-03-23T15:10:55.718Z,28.55
2019-03-23T15:13:23.048Z,27.37
2019-03-23T15:15:50.381Z,27.55
2019-03-23T15:18:18.273Z,29.07
2019-03-23T15:20:45.844Z,27.25
2019-03-23T15:23:13.277Z,28.52
2019-03-23T15:25:43.890Z,28.50
2019-03-23T15:28:11.300Z,31.87
2019-03-23T15:30:38.690Z,28.62
2019-03-23T15:33:06.110Z,31.23
2019-03-23T15:35:33.664Z,30.85
2019-03-23T15:38:01.400Z,30.12
2019-03-23T15:40:28.788Z,31.55
2019-03-23T15:42:56.374Z,32.55
2019-03-23T15:45:23.765Z,31.62
2019-03-23T15:47:51.362Z,33.80
2019-03-23T15:50:19.148Z,34.67
2019-03-23T15:52:46.824Z,57.43
2019-03-23T15:55:14.254Z,32.15
2019-03-23T15:57:41.576Z,31.00
2019-03-23T16:00:09.840Z,32.65
2019-03-23T16:02:37.235Z,32.63
2019-03-23T16:05:05.534Z,33.67
2019-03-23T16:07:33.306Z,34.38
2019-03-23T16:10:02.681Z,34.08
2019-03-23T16:12:34.797Z,34.10
2019-03-23T16:14:59.531Z,32.90
2019-03-23T16:17:26.973Z,34.23
2019-03-23T16:19:54.288Z,32.15
2019-03-23T16:22:21.993Z,34.85
2019-03-23T16:24:49.390Z,35.38
2019-03-23T16:27:16.705Z,36.40
2019-03-23T16:29:44.338Z,38.10
2019-03-23T16:32:11.636Z,39.15
2019-03-23T16:34:38.964Z,40.43
2019-03-23T16:37:06.257Z,38.25
2019-03-23T16:39:33.561Z,37.23
2019-03-23T16:42:00.860Z,37.60
2019-03-23T16:44:28.550Z,36.30
2019-03-23T16:46:55.946Z,42.17
2019-03-23T16:49:23.341Z,44.13
2019-03-23T16:51:50.630Z,115.08
2019-03-23T16:54:18.070Z,268.35
2019-03-23T16:56:45.390Z,238.45
2019-03-23T16:59:12.829Z,81.85
2019-03-23T17:01:40.396Z,79.03
2019-03-23T17:04:08.731Z,42.90
2019-03-23T17:06:45.968Z,38.73
2019-03-23T17:09:05.801Z,43.42
2019-03-23T17:11:33.278Z,41.80
2019-03-23T17:14:00.723Z,38.10
2019-03-23T17:16:28.331Z,39.50
2019-03-23T17:18:56.143Z,36.05
2019-03-23T17:21:23.463Z,40.48
2019-03-23T17:23:50.991Z,42.03
2019-03-23T17:26:18.433Z,40.30
2019-03-23T17:28:45.863Z,40.78
2019-03-23T17:31:13.312Z,39.10
2019-03-23T17:33:40.632Z,39.92
2019-03-23T17:36:07.979Z,40.23
2019-03-23T17:38:35.502Z,41.70
2019-03-23T17:41:03.405Z,41.65
2019-03-23T17:43:30.712Z,36.80
2019-03-23T17:45:58.324Z,40.78
2019-03-23T17:48:25.916Z,34.53
2019-03-23T17:50:53.309Z,39.08
2019-03-23T17:53:20.614Z,34.03
2019-03-23T17:55:47.945Z,33.15
2019-03-23T17:58:15.370Z,35.48
2019-03-23T18:00:42.792Z,31.33
2019-03-23T18:03:10.177Z,31.77
2019-03-23T18:05:38.129Z,32.40
2019-03-23T18:08:05.657Z,30.90
2019-03-23T18:10:33.148Z,32.30
2019-03-23T18:13:00.557Z,32.05
2019-03-23T18:15:28.184Z,29.32
2019-03-23T18:17:55.564Z,28.77
2019-03-23T18:20:23.187Z,31.35
2019-03-23T18:22:50.593Z,31.45
2019-03-23T18:25:18.216Z,28.70
2019-03-23T18:27:45.636Z,34.43
2019-03-23T18:30:35.059Z,27.65
2019-03-23T18:33:02.585Z,29.00
2019-03-23T18:35:30.296Z,28.57
2019-03-23T18:37:57.737Z,27.37
2019-03-23T18:40:25.139Z,26.05
2019-03-23T18:42:52.996Z,27.85
2019-03-23T18:45:20.404Z,25.50
2019-03-23T18:47:47.755Z,25.92
2019-03-23T18:50:15.299Z,25.48
2019-03-23T18:52:42.891Z,26.73
2019-03-23T18:55:10.497Z,27.75
2019-03-23T18:57:37.939Z,23.85
2019-03-23T19:00:06.176Z,23.87
2019-03-23T19:02:33.366Z,23.27
2019-03-23T19:05:00.813Z,24.75
2019-03-23T19:07:28.524Z,21.80
2019-03-23T19:09:55.908Z,21.73
2019-03-23T19:12:23.284Z,24.45
2019-03-23T19:14:51.243Z,21.62
2019-03-23T19:17:18.705Z,23.62
2019-03-23T19:19:46.078Z,24.63
2019-03-23T19:22:13.597Z,24.87
2019-03-23T19:24:41.041Z,22.13
2019-03-23T19:27:08.340Z,24.97
2019-03-23T19:29:35.849Z,28.38
2019-03-23T19:32:03.437Z,26.27
2019-03-23T19:34:31.196Z,25.82
2019-03-23T19:36:58.604Z,25.07
2019-03-23T19:39:26.294Z,23.02
2019-03-23T19:41:53.860Z,25.65
2019-03-23T19:44:21.197Z,25.27
2019-03-23T19:46:48.945Z,26.40
2019-03-23T19:49:16.320Z,24.40
2019-03-23T19:51:43.727Z,28.73
2019-03-23T19:54:11.133Z,28.95
2019-03-23T19:56:38.859Z,25.13
2019-03-23T19:59:06.600Z,30.82
2019-03-23T20:01:34.648Z,28.63
2019-03-23T20:04:02.223Z,25.70
2019-03-23T20:06:29.869Z,25.93
2019-03-23T20:08:57.356Z,26.60
2019-03-23T20:11:24.909Z,25.72
2019-03-23T20:13:58.624Z,27.40
2019-03-23T20:16:22.190Z,28.17
2019-03-23T20:18:49.600Z,25.63
2019-03-23T20:21:17.248Z,25.70
2019-03-23T20:23:44.552Z,26.33
2019-03-23T20:26:12.124Z,26.47
2019-03-23T20:28:39.712Z,24.67
2019-03-23T20:31:07.007Z,26.77
2019-03-23T20:33:34.679Z,30.50
2019-03-23T20:36:02.153Z,28.20
2019-03-23T20:38:30.080Z,27.27
2019-03-23T20:40:57.484Z,25.40
2019-03-23T20:43:25.098Z,26.33
2019-03-23T20:45:52.625Z,24.87
2019-03-23T20:48:20.901Z,26.03
2019-03-23T20:50:49.087Z,24.77
2019-03-23T20:53:18.526Z,22.93
2019-03-23T20:55:53.972Z,26.83
2019-03-23T20:58:21.723Z,24.57
2019-03-23T21:00:49.311Z,27.50
2019-03-23T21:03:16.927Z,27.93
2019-03-23T21:05:44.402Z,27.37
2019-03-23T21:08:11.711Z,31.00
2019-03-23T21:10:39.045Z,34.23
2019-03-23T21:13:06.621Z,32.03
2019-03-23T21:15:34.374Z,32.97
2019-03-23T21:18:02.161Z,27.33
2019-03-23T21:20:29.528Z,26.70
2019-03-23T21:22:56.876Z,27.80
2019-03-23T21:25:24.188Z,30.77
2019-03-23T21:27:51.688Z,29.20
2019-03-23T21:30:19.295Z,31.37
2019-03-23T21:32:47.305Z,27.43
2019-03-23T21:35:15.876Z,26.23
2019-03-23T21:37:43.564Z,30.20
2019-03-23T21:40:11.175Z,29.43
2019-03-23T21:42:38.720Z,26.13
2019-03-23T21:45:06.947Z,25.17
2019-03-23T21:47:34.246Z,27.07
2019-03-23T21:50:02.039Z,26.37
2019-03-23T21:52:29.696Z,24.67
2019-03-23T21:54:57.348Z,27.50
2019-03-23T21:57:25.586Z,25.97
2019-03-23T21:59:54.112Z,25.90
2019-03-23T22:02:21.481Z,29.13
2019-03-23T22:04:49.152Z,28.50
2019-03-23T22:07:16.738Z,27.57
2019-03-23T22:09:44.372Z,24.87
2019-03-23T22:12:12.073Z,22.63
2019-03-23T22:14:41.985Z,26.70
2019-03-23T22:17:11.241Z,24.73
2019-03-23T22:19:39.499Z,23.23
2019-03-23T22:22:10.690Z,28.77
2019-03-23T22:24:38.333Z,26.70
2019-03-23T22:27:06.353Z,25.23
2019-03-23T22:29:35.992Z,25.73
2019-03-23T22:32:03.600Z,27.63
2019-03-23T22:34:31.429Z,28.77
2019-03-23T22:36:58.601Z,29.97
2019-03-23T22:39:25.778Z,27.80
2019-03-23T22:41:52.919Z,26.20
2019-03-23T22:44:22.050Z,23.93
2019-03-23T22:46:49.283Z,26.30
2019-03-23T22:49:16.472Z,22.90
2019-03-23T22:51:43.699Z,23.87
2019-03-23T22:54:11.112Z,24.57
2019-03-23T22:56:38.308Z,24.60
2019-03-23T22:59:05.663Z,25.50
2019-03-23T23:01:33.299Z,25.47
2019-03-23T23:04:00.692Z,25.73
2019-03-23T23:06:27.996Z,23.50
2019-03-23T23:08:55.243Z,23.10
2019-03-23T23:11:22.823Z,26.23
2019-03-23T23:13:50.135Z,22.83
2019-03-23T23:16:17.769Z,25.93
2019-03-23T23:18:45.268Z,25.37
2019-03-23T23:21:12.748Z,27.00
2019-03-23T23:23:40.868Z,27.70
2019-03-23T23:26:08.317Z,23.03
2019-03-23T23:28:36.306Z,23.30
2019-03-23T23:31:03.645Z,26.10
2019-03-23T23:33:31.068Z,22.90
2019-03-23T23:35:58.615Z,24.83
2019-03-23T23:38:26.401Z,24.50
2019-03-23T23:40:53.680Z,25.00
2019-03-23T23:43:20.853Z,25.80
2019-03-23T23:45:48.492Z,32.07
2019-03-23T23:48:15.916Z,27.73
2019-03-23T23:50:43.383Z,25.03
2019-03-23T23:53:10.938Z,25.43
2019-03-23T23:55:38.537Z,26.53
2019-03-23T23:58:05.945Z,26.33
